Time;durP1;ratioP1;P1;durP2;ratioP2;P2;SDS_P1;SDS_P2;PMS_P1;PMS_P2;Temp;Humidity;BMP_temperature;BMP_pressure;BME280_temperature;BME280_humidity;BME280_pressure;Samples;Min_cycle;Max_cycle;Signal;HPM_P1;HPM_P2
2022/05/19 00:02:05;;;;;;;4.10;3.70;;;18.70;80.90;;;;;;5097232;28;20425;-43
2022/05/19 00:04:32;;;;;;;3.60;3.30;;;18.70;80.80;;;;;;5085435;28;20419;-42
2022/05/19 00:06:58;;;;;;;4.27;3.90;;;18.70;80.80;;;;;;5077073;28;20439;-43
2022/05/19 00:09:24;;;;;;;4.70;3.97;;;18.70;80.80;;;;;;5078674;28;20803;-43
2022/05/19 00:11:51;;;;;;;4.13;3.73;;;18.70;80.60;;;;;;5096938;28;20783;-43
2022/05/19 00:14:18;;;;;;;8.30;4.20;;;18.70;80.90;;;;;;5077439;28;20434;-43
2022/05/19 00:16:44;;;;;;;4.20;3.90;;;18.70;80.70;;;;;;5076969;28;20445;-42
2022/05/19 00:19:11;;;;;;;4.23;3.40;;;18.60;80.50;;;;;;5076340;28;20429;-43
2022/05/19 00:21:38;;;;;;;4.90;4.40;;;18.60;80.00;;;;;;5062799;28;20434;-44
2022/05/19 00:24:04;;;;;;;3.57;3.27;;;18.60;80.00;;;;;;5097263;28;20416;-44
2022/05/19 00:26:29;;;;;;;5.43;4.03;;;18.60;79.90;;;;;;5096957;28;20496;-44
2022/05/19 00:28:55;;;;;;;3.73;3.23;;;18.60;80.40;;;;;;5098689;28;20428;-44
2022/05/19 00:31:21;;;;;;;4.00;3.60;;;18.60;81.50;;;;;;5080579;28;20184;-44
2022/05/19 00:33:46;;;;;;;4.70;4.10;;;18.50;82.00;;;;;;5086278;28;20235;-44
2022/05/19 00:36:15;;;;;;;5.40;3.93;;;18.50;82.00;;;;;;5100080;28;20173;-44
2022/05/19 00:38:41;;;;;;;3.90;3.50;;;18.50;82.10;;;;;;5099932;28;20174;-44
2022/05/19 00:41:08;;;;;;;5.80;3.57;;;18.50;81.70;;;;;;5100838;28;20436;-44
2022/05/19 00:43:40;;;;;;;4.27;3.90;;;18.50;81.30;;;;;;5080997;28;20851;-44
2022/05/19 00:46:47;;;;;;;4.47;3.70;;;18.50;81.60;;;;;;5079295;28;20503;-44
2022/05/19 00:49:28;;;;;;;4.80;4.20;;;18.40;82.20;;;;;;5017962;28;20533;-44
2022/05/19 00:52:05;;;;;;;3.93;3.03;;;18.30;82.70;;;;;;5018502;28;20543;-44
2022/05/19 00:54:37;;;;;;;3.67;3.37;;;18.30;83.20;;;;;;5057979;28;20419;-44
2022/05/19 00:57:23;;;;;;;4.13;3.83;;;18.20;83.70;;;;;;5062939;28;20428;-44
2022/05/19 01:00:03;;;;;;;4.30;3.73;;;18.20;84.00;;;;;;5075090;28;20419;-44
2022/05/19 01:02:34;;;;;;;8.37;4.77;;;18.20;84.30;;;;;;5100379;28;20813;-44
2022/05/19 01:05:18;;;;;;;3.80;3.50;;;18.10;84.40;;;;;;5099946;28;20482;-44
2022/05/19 01:07:46;;;;;;;4.80;4.40;;;18.00;84.40;;;;;;5082637;28;20411;-43
2022/05/19 01:10:13;;;;;;;4.33;3.93;;;18.00;85.10;;;;;;5070344;28;20450;-45
2022/05/19 01:12:40;;;;;;;4.27;3.97;;;17.90;85.30;;;;;;5078846;28;20459;-44
2022/05/19 01:15:06;;;;;;;4.80;3.93;;;17.90;85.90;;;;;;5075836;28;20432;-44
2022/05/19 01:17:33;;;;;;;4.27;3.80;;;17.80;85.90;;;;;;5078911;28;20864;-44
2022/05/19 01:20:03;;;;;;;4.57;4.17;;;17.70;86.20;;;;;;5072457;28;20422;-44
2022/05/19 01:22:38;;;;;;;4.33;3.93;;;17.70;87.00;;;;;;5062269;28;20444;-44
2022/05/19 01:25:10;;;;;;;4.63;4.23;;;17.70;86.90;;;;;;5097225;28;20491;-44
2022/05/19 01:27:36;;;;;;;3.90;3.60;;;17.70;87.00;;;;;;5081600;28;20712;-43
2022/05/19 01:30:09;;;;;;;5.27;4.80;;;17.70;86.80;;;;;;5081366;28;20689;-44
2022/05/19 01:32:35;;;;;;;4.47;3.57;;;17.70;87.00;;;;;;5079373;28;20486;-44
2022/05/19 01:35:01;;;;;;;5.40;4.00;;;17.70;87.30;;;;;;5079259;28;20446;-44
2022/05/19 01:38:23;;;;;;;4.50;3.87;;;17.70;87.20;;;;;;5080300;28;20840;-44
2022/05/19 01:40:57;;;;;;;4.00;3.70;;;17.70;87.10;;;;;;5079189;28;20856;-44
2022/05/19 01:43:36;;;;;;;4.20;3.80;;;17.70;87.10;;;;;;5081457;28;20422;-44
2022/05/19 01:46:16;;;;;;;3.70;3.40;;;17.70;86.90;;;;;;5098479;28;20419;-44
2022/05/19 01:49:01;;;;;;;4.80;4.30;;;17.70;87.10;;;;;;5099467;28;20817;-44
2022/05/19 01:51:38;;;;;;;4.13;3.73;;;17.60;86.80;;;;;;5099610;28;20424;-44
2022/05/19 01:54:24;;;;;;;4.20;3.80;;;17.60;87.50;;;;;;5081437;28;20689;-44
2022/05/19 01:57:04;;;;;;;3.97;3.57;;;17.50;87.90;;;;;;5057696;28;20521;-44
2022/05/19 02:00:05;;;;;;;4.13;3.70;;;17.50;88.30;;;;;;5068180;28;20432;-44
2022/05/19 02:03:01;;;;;;;6.07;4.30;;;17.50;88.20;;;;;;5079011;28;20456;-44
2022/05/19 02:05:49;;;;;;;5.17;4.00;;;17.40;88.60;;;;;;5047703;28;20444;-45
2022/05/19 02:08:22;;;;;;;4.43;4.03;;;17.40;89.20;;;;;;5078653;28;20892;-44
2022/05/19 02:10:51;;;;;;;4.53;4.13;;;17.40;89.20;;;;;;5091570;28;20431;-44
2022/05/19 02:13:17;;;;;;;4.93;4.30;;;17.40;89.70;;;;;;5077389;28;20877;-44
2022/05/19 02:15:45;;;;;;;3.97;3.67;;;17.30;89.90;;;;;;5060495;28;20453;-44
2022/05/19 02:18:12;;;;;;;4.20;3.90;;;17.30;89.20;;;;;;5059977;28;20420;-44
2022/05/19 02:20:40;;;;;;;4.43;4.03;;;17.30;89.10;;;;;;5072326;28;20440;-44
2022/05/19 02:23:06;;;;;;;5.83;4.27;;;17.30;89.30;;;;;;5081105;28;20410;-44
2022/05/19 02:25:36;;;;;;;4.07;3.70;;;17.30;89.50;;;;;;5098355;28;20828;-44
2022/05/19 02:28:03;;;;;;;4.83;4.23;;;17.20;90.30;;;;;;5097581;28;20686;-43
2022/05/19 02:30:32;;;;;;;4.90;3.70;;;17.20;89.80;;;;;;5079531;28;20541;-44
2022/05/19 02:32:59;;;;;;;4.23;3.83;;;17.20;89.40;;;;;;5097819;28;20494;-44
2022/05/19 02:35:26;;;;;;;4.30;4.00;;;17.20;88.90;;;;;;5098134;28;20712;-44
2022/05/19 02:37:53;;;;;;;4.47;4.07;;;17.20;89.40;;;;;;5097791;28;20742;-43
2022/05/19 02:40:20;;;;;;;4.30;3.90;;;17.20;89.80;;;;;;5080169;28;20428;-44
2022/05/19 02:42:46;;;;;;;4.07;3.73;;;17.10;89.10;;;;;;5098677;28;20417;-43
2022/05/19 02:45:13;;;;;;;4.00;3.47;;;17.10;88.60;;;;;;5079565;28;20439;-43
2022/05/19 02:47:39;;;;;;;4.07;3.77;;;17.10;88.70;;;;;;5097527;28;20822;-44
2022/05/19 02:50:06;;;;;;;3.70;3.40;;;17.00;89.00;;;;;;5097421;28;20483;-44
2022/05/19 02:52:32;;;;;;;3.47;3.17;;;17.00;89.20;;;;;;5078378;28;20461;-44
2022/05/19 02:54:58;;;;;;;3.87;3.47;;;17.00;89.20;;;;;;5077928;28;20412;-44
2022/05/19 02:57:24;;;;;;;4.60;3.53;;;17.00;89.30;;;;;;5077592;28;20235;-44
2022/05/19 02:59:49;;;;;;;6.63;4.10;;;17.00;89.70;;;;;;5088176;28;20181;-44
2022/05/19 03:02:15;;;;;;;4.20;3.87;;;16.90;89.60;;;;;;5097013;28;20264;-44
2022/05/19 03:04:41;;;;;;;4.83;4.00;;;16.90;89.10;;;;;;5096317;28;20184;-44
2022/05/19 03:07:07;;;;;;;4.30;4.00;;;16.90;88.90;;;;;;5078671;28;20177;-44
2022/05/19 03:09:33;;;;;;;3.83;3.53;;;16.80;89.40;;;;;;5081432;28;20185;-44
2022/05/19 03:11:58;;;;;;;4.27;3.87;;;16.80;90.00;;;;;;5075128;28;20490;-44
2022/05/19 03:14:24;;;;;;;3.87;3.57;;;16.70;90.10;;;;;;5080141;28;20818;-44
2022/05/19 03:16:50;;;;;;;4.40;4.00;;;16.70;90.30;;;;;;5096152;28;20523;-44
2022/05/19 03:19:16;;;;;;;4.60;4.27;;;16.70;90.20;;;;;;5096176;28;20218;-44
2022/05/19 03:21:42;;;;;;;4.00;3.70;;;16.80;90.20;;;;;;5097239;28;20479;-43
2022/05/19 03:24:09;;;;;;;4.00;3.60;;;16.70;90.20;;;;;;5097799;28;20422;-44
2022/05/19 03:26:34;;;;;;;4.37;4.07;;;16.70;90.40;;;;;;5096780;28;20450;-42
2022/05/19 03:29:00;;;;;;;4.97;4.00;;;16.70;90.40;;;;;;5078772;28;20419;-44
2022/05/19 03:31:26;;;;;;;3.90;3.60;;;16.70;90.30;;;;;;5096814;28;20173;-44
2022/05/19 03:33:52;;;;;;;4.80;4.40;;;16.60;90.30;;;;;;5096636;28;20456;-44
2022/05/19 03:36:18;;;;;;;4.10;3.47;;;16.60;90.30;;;;;;5095783;28;20480;-43
2022/05/19 03:38:44;;;;;;;4.27;3.87;;;16.60;90.50;;;;;;5095881;28;20431;-43
2022/05/19 03:41:09;;;;;;;5.30;3.70;;;16.50;90.40;;;;;;5096786;28;20260;-44
2022/05/19 03:43:35;;;;;;;4.80;4.23;;;16.50;90.40;;;;;;5097383;28;20181;-44
2022/05/19 03:46:04;;;;;;;4.30;3.50;;;16.50;90.50;;;;;;5095821;28;20190;-44
2022/05/19 03:48:36;;;;;;;4.87;4.50;;;16.60;90.30;;;;;;5095983;28;20267;-44
2022/05/19 03:51:04;;;;;;;4.13;3.70;;;16.50;90.20;;;;;;5096439;28;20431;-44
2022/05/19 03:53:30;;;;;;;3.97;3.50;;;16.40;90.40;;;;;;5095363;28;20492;-44
2022/05/19 03:55:56;;;;;;;3.60;3.23;;;16.40;90.70;;;;;;5094842;28;20423;-43
2022/05/19 03:58:21;;;;;;;4.77;4.40;;;16.40;90.90;;;;;;5089281;28;20434;-44
2022/05/19 04:00:47;;;;;;;4.37;3.97;;;16.50;90.70;;;;;;5058213;28;20173;-44
2022/05/19 04:03:13;;;;;;;4.50;3.90;;;16.40;90.50;;;;;;5078681;28;20184;-44
2022/05/19 04:05:38;;;;;;;5.00;4.10;;;16.50;90.50;;;;;;5080004;28;20462;-44
2022/05/19 04:08:05;;;;;;;3.70;3.40;;;16.50;90.60;;;;;;5078899;28;20516;-44
2022/05/19 04:10:31;;;;;;;4.53;4.23;;;16.50;90.50;;;;;;5060226;28;20177;-44
2022/05/19 04:12:57;;;;;;;4.07;3.77;;;16.50;90.20;;;;;;5079054;28;20522;-44
2022/05/19 04:15:23;;;;;;;4.67;3.77;;;16.50;90.50;;;;;;5077450;28;20758;-44
2022/05/19 04:17:48;;;;;;;3.83;3.43;;;16.50;90.30;;;;;;5078446;28;20323;-44
2022/05/19 04:20:18;;;;;;;4.07;3.77;;;16.60;90.30;;;;;;5078625;28;20563;-44
2022/05/19 04:22:44;;;;;;;4.30;3.70;;;16.70;90.50;;;;;;5077168;28;20313;-44
2022/05/19 04:25:11;;;;;;;5.43;4.40;;;16.70;90.30;;;;;;5077940;28;20538;-43
2022/05/19 04:27:37;;;;;;;4.37;3.97;;;16.80;90.10;;;;;;5078661;28;20644;-44
2022/05/19 04:30:04;;;;;;;4.00;3.70;;;16.90;89.90;;;;;;5084139;28;20428;-44
2022/05/19 04:32:30;;;;;;;4.30;3.87;;;17.00;89.70;;;;;;5077969;28;20476;-44
2022/05/19 04:34:56;;;;;;;5.43;4.80;;;17.20;89.70;;;;;;5075860;28;20513;-43
2022/05/19 04:37:21;;;;;;;4.40;3.80;;;17.20;89.40;;;;;;5086379;28;20184;-44
2022/05/19 04:39:47;;;;;;;4.60;4.20;;;17.30;88.30;;;;;;5097715;28;20474;-44
2022/05/19 04:42:16;;;;;;;6.50;4.37;;;17.40;87.60;;;;;;5096622;28;20185;-44
2022/05/19 04:44:42;;;;;;;6.00;4.03;;;17.40;87.90;;;;;;5079726;28;20192;-45
2022/05/19 04:47:07;;;;;;;4.27;3.70;;;17.50;87.90;;;;;;5074559;28;20419;-44
2022/05/19 04:49:33;;;;;;;5.30;3.60;;;17.60;87.60;;;;;;5075657;28;20192;-44
2022/05/19 04:51:59;;;;;;;4.40;4.00;;;17.70;86.80;;;;;;5080149;28;20192;-43
2022/05/19 04:54:27;;;;;;;3.93;3.63;;;17.80;86.10;;;;;;5096685;28;20265;-43
2022/05/19 04:56:53;;;;;;;4.17;3.87;;;17.80;85.60;;;;;;5096716;28;20186;-44
2022/05/19 04:59:19;;;;;;;4.57;4.17;;;17.90;85.90;;;;;;5084899;28;20481;-44
2022/05/19 05:01:46;;;;;;;3.50;3.20;;;18.00;85.60;;;;;;5059607;28;20242;-44
2022/05/19 05:04:13;;;;;;;3.67;3.37;;;18.10;85.40;;;;;;5078032;28;20239;-44
2022/05/19 05:06:40;;;;;;;4.50;3.30;;;18.10;85.00;;;;;;5077258;28;20460;-44
2022/05/19 05:09:35;;;;;;;4.23;3.83;;;18.20;85.00;;;;;;5077649;28;20431;-42
2022/05/19 05:12:01;;;;;;;4.17;3.50;;;18.30;84.50;;;;;;5058996;28;20471;-44
2022/05/19 05:14:39;;;;;;;4.07;3.60;;;18.40;84.00;;;;;;5073143;28;20409;-44
2022/05/19 05:17:05;;;;;;;3.90;3.60;;;18.60;83.80;;;;;;5073463;28;20436;-43
2022/05/19 05:19:31;;;;;;;5.63;3.80;;;18.70;83.20;;;;;;5074138;28;20423;-44
2022/05/19 05:21:59;;;;;;;4.40;4.00;;;18.80;81.70;;;;;;5075037;28;20742;-44
2022/05/19 05:24:26;;;;;;;3.63;3.33;;;18.80;81.30;;;;;;5074198;28;20204;-45
2022/05/19 05:26:52;;;;;;;3.63;3.37;;;18.90;81.20;;;;;;5073851;28;20430;-44
2022/05/19 05:29:19;;;;;;;4.97;3.57;;;19.00;80.90;;;;;;5072138;28;20522;-44
2022/05/19 05:31:45;;;;;;;5.00;3.77;;;19.00;80.50;;;;;;5074191;28;20504;-43
2022/05/19 05:34:11;;;;;;;3.63;3.33;;;19.20;80.00;;;;;;5074335;28;20511;-44
2022/05/19 05:36:37;;;;;;;3.10;2.80;;;19.30;79.80;;;;;;5075928;28;20458;-44
2022/05/19 05:39:09;;;;;;;3.50;3.20;;;19.40;79.60;;;;;;5072420;28;20438;-44
2022/05/19 05:41:35;;;;;;;4.87;3.27;;;19.50;79.20;;;;;;5073060;28;20522;-44
2022/05/19 05:44:01;;;;;;;3.77;3.47;;;19.60;79.00;;;;;;5074712;28;20544;-44
2022/05/19 05:46:26;;;;;;;6.57;4.30;;;19.70;78.40;;;;;;5055741;28;20188;-44
2022/05/19 05:48:52;;;;;;;5.23;4.13;;;19.80;77.70;;;;;;5073975;28;20559;-44
2022/05/19 05:51:18;;;;;;;6.60;4.10;;;19.80;76.90;;;;;;5056810;28;20239;-44
2022/05/19 05:53:45;;;;;;;10.47;4.67;;;19.70;77.20;;;;;;5073101;28;20204;-44
2022/05/19 05:56:16;;;;;;;7.80;4.30;;;19.70;78.50;;;;;;5072002;28;21049;-44
2022/05/19 05:58:42;;;;;;;5.50;4.37;;;19.70;79.10;;;;;;5054113;28;20924;-44
2022/05/19 06:01:10;;;;;;;6.97;4.80;;;19.70;79.50;;;;;;5071964;28;20434;-44
2022/05/19 06:03:37;;;;;;;6.97;4.10;;;19.80;79.30;;;;;;5073167;28;20432;-44
2022/05/19 06:06:03;;;;;;;6.30;4.33;;;19.90;79.40;;;;;;5057060;28;20512;-44
2022/05/19 06:08:29;;;;;;;6.77;4.30;;;19.90;79.90;;;;;;5075094;28;20462;-44
2022/05/19 06:10:55;;;;;;;5.13;4.47;;;19.90;80.00;;;;;;5084283;28;20449;-44
2022/05/19 06:13:21;;;;;;;5.80;4.67;;;19.90;80.30;;;;;;5075814;28;20487;-44
2022/05/19 06:15:47;;;;;;;5.73;5.00;;;20.00;80.00;;;;;;5096046;28;20179;-43
2022/05/19 06:18:15;;;;;;;4.63;4.00;;;20.10;80.40;;;;;;5080826;28;20431;-44
2022/05/19 06:20:41;;;;;;;4.60;4.00;;;20.20;80.20;;;;;;5075539;28;20431;-45
2022/05/19 06:23:08;;;;;;;5.20;4.40;;;20.30;80.40;;;;;;5075162;28;20442;-44
2022/05/19 06:25:34;;;;;;;4.97;4.50;;;20.40;79.90;;;;;;5073562;28;20467;-45
2022/05/19 06:28:00;;;;;;;6.43;4.13;;;20.50;79.80;;;;;;5074694;28;20432;-44
2022/05/19 06:30:38;;;;;;;4.90;4.50;;;20.70;78.70;;;;;;5055352;28;20421;-45
2022/05/19 06:33:08;;;;;;;6.03;4.00;;;20.80;78.70;;;;;;5073918;28;20509;-44
2022/05/19 06:35:34;;;;;;;5.63;4.00;;;20.90;78.30;;;;;;5057052;28;20405;-44
2022/05/19 06:38:00;;;;;;;4.33;3.93;;;20.90;77.60;;;;;;5073063;28;20422;-44
2022/05/19 06:40:28;;;;;;;4.73;4.33;;;21.00;77.30;;;;;;5073954;28;20410;-44
2022/05/19 06:42:57;;;;;;;4.00;3.63;;;21.20;77.00;;;;;;5061517;28;20816;-44
2022/05/19 06:45:25;;;;;;;5.67;5.07;;;21.30;76.60;;;;;;5095171;28;20474;-45
2022/05/19 06:47:52;;;;;;;4.90;4.50;;;21.50;75.10;;;;;;5093701;28;20528;-45
2022/05/19 06:50:19;;;;;;;4.40;4.00;;;21.50;74.80;;;;;;5093813;28;20473;-44
2022/05/19 06:52:49;;;;;;;5.20;4.53;;;21.50;75.20;;;;;;5077768;28;20473;-45
2022/05/19 06:55:16;;;;;;;4.33;3.97;;;21.80;73.80;;;;;;5093204;28;20430;-44
2022/05/19 06:57:42;;;;;;;4.50;4.20;;;21.90;73.30;;;;;;5091244;28;20462;-44
2022/05/19 07:00:11;;;;;;;4.40;4.00;;;22.20;73.60;;;;;;5074577;28;20675;-44
2022/05/19 07:02:42;;;;;;;4.00;3.70;;;22.40;73.40;;;;;;5072780;28;20282;-45
2022/05/19 07:05:08;;;;;;;4.40;4.00;;;22.60;71.90;;;;;;5073668;28;20420;-45
2022/05/19 07:07:33;;;;;;;6.00;4.93;;;22.60;71.80;;;;;;5071654;28;20572;-43
2022/05/19 07:09:59;;;;;;;5.43;4.93;;;22.60;70.60;;;;;;5054178;28;20871;-43
2022/05/19 07:12:25;;;;;;;4.47;4.07;;;22.70;70.20;;;;;;5074227;28;20206;-47
2022/05/19 07:14:51;;;;;;;4.50;4.20;;;22.80;70.70;;;;;;5071766;28;20187;-46
2022/05/19 07:17:17;;;;;;;4.70;4.10;;;22.80;69.70;;;;;;5071630;28;20189;-45
2022/05/19 07:22:29;;;;;;;5.87;4.80;;;23.00;67.90;;;;;;5072101;28;20424;-45
2022/05/19 07:24:55;;;;;;;4.53;4.13;;;23.10;68.60;;;;;;5073256;28;20457;-45
2022/05/19 07:27:21;;;;;;;5.90;4.53;;;23.30;68.00;;;;;;5071059;28;20563;-43
2022/05/19 07:29:47;;;;;;;4.60;4.20;;;23.40;66.40;;;;;;5071346;28;20187;-44
2022/05/19 07:32:13;;;;;;;5.50;3.83;;;23.50;66.70;;;;;;5071074;28;20914;-44
2022/05/19 07:34:40;;;;;;;5.23;4.73;;;23.50;65.90;;;;;;5073992;28;20444;-45
2022/05/19 07:37:06;;;;;;;5.10;4.53;;;23.50;65.80;;;;;;5096342;28;20178;-44
2022/05/19 07:39:32;;;;;;;6.70;4.37;;;23.70;65.60;;;;;;5098977;28;20412;-45
2022/05/19 07:41:58;;;;;;;5.07;4.50;;;23.80;65.30;;;;;;5098626;28;20409;-42
2022/05/19 07:44:26;;;;;;;5.67;4.60;;;24.00;64.80;;;;;;5096799;28;20435;-47
2022/05/19 07:46:52;;;;;;;4.80;3.97;;;24.20;64.00;;;;;;5097429;28;20683;-45
2022/05/19 07:49:18;;;;;;;5.33;4.50;;;24.10;63.70;;;;;;5098140;28;20431;-43
2022/05/19 07:51:44;;;;;;;5.20;4.70;;;24.10;63.60;;;;;;5097941;28;20405;-44
2022/05/19 07:54:18;;;;;;;5.00;4.30;;;24.30;63.10;;;;;;5097290;28;20183;-42
2022/05/19 07:56:51;;;;;;;4.90;4.60;;;24.40;63.60;;;;;;5096641;28;20418;-41
2022/05/19 07:59:17;;;;;;;4.63;4.27;;;24.60;61.60;;;;;;5098207;28;20432;-42
2022/05/19 08:01:44;;;;;;;5.97;4.53;;;24.80;62.40;;;;;;5098133;28;20417;-43
2022/05/19 08:04:11;;;;;;;4.83;4.43;;;25.10;61.80;;;;;;5098168;28;20204;-44
2022/05/19 08:06:37;;;;;;;4.30;4.00;;;25.20;60.90;;;;;;5099485;28;20411;-44
2022/05/19 08:10:20;;;;;;;5.20;4.70;;;25.30;61.00;;;;;;5099883;28;20416;-44
2022/05/19 08:11:49;;;;;;;5.30;4.80;;;25.40;60.30;;;;;;5097739;28;20436;-44
2022/05/19 08:16:59;;;;;;;4.97;4.57;;;25.50;60.30;;;;;;5098217;28;20415;-41
2022/05/19 08:19:25;;;;;;;5.77;5.27;;;25.90;59.10;;;;;;5096739;28;20659;-43
2022/05/19 08:21:50;;;;;;;7.40;4.40;;;26.10;59.30;;;;;;5097259;28;20165;-42
2022/05/19 08:24:16;;;;;;;6.07;4.47;;;26.10;59.60;;;;;;5080153;28;20697;-44
2022/05/19 08:26:42;;;;;;;5.30;4.90;;;26.40;59.00;;;;;;5098213;28;20183;-45
2022/05/19 08:29:08;;;;;;;5.20;4.70;;;26.60;58.50;;;;;;5097078;28;20497;-44
2022/05/19 08:31:35;;;;;;;5.43;4.30;;;26.70;58.40;;;;;;5097728;28;20233;-41
2022/05/19 08:34:03;;;;;;;5.20;4.80;;;26.80;58.80;;;;;;5097847;28;20234;-42
2022/05/19 08:36:29;;;;;;;4.83;4.43;;;26.90;58.50;;;;;;5098883;28;20716;-44
2022/05/19 08:38:56;;;;;;;5.17;4.73;;;27.10;58.50;;;;;;5096561;28;20499;-44
2022/05/19 08:41:46;;;;;;;5.40;4.90;;;27.30;57.90;;;;;;5097361;28;20180;-45
2022/05/19 08:44:20;;;;;;;6.80;5.17;;;27.50;57.20;;;;;;5080923;28;20426;-42
2022/05/19 08:46:50;;;;;;;6.43;4.97;;;27.50;57.30;;;;;;5080609;28;20471;-43
2022/05/19 08:49:53;;;;;;;5.53;5.13;;;27.80;57.50;;;;;;5078218;28;20822;-45
2022/05/19 08:52:22;;;;;;;5.53;5.13;;;28.20;56.80;;;;;;5096675;28;20466;-42
2022/05/19 08:54:49;;;;;;;6.03;4.70;;;28.60;56.00;;;;;;5078471;28;20870;-45
2022/05/19 08:57:18;;;;;;;5.93;5.00;;;28.90;55.10;;;;;;5079932;28;20444;-45
2022/05/19 09:00:02;;;;;;;5.63;5.20;;;28.90;55.20;;;;;;5097540;28;20878;-46
2022/05/19 09:06:05;;;;;;;5.20;4.40;;;29.70;53.90;;;;;;5096087;28;20389;-44
2022/05/19 09:08:52;;;;;;;5.27;4.87;;;30.00;53.30;;;;;;5096736;28;20571;-46
2022/05/19 09:11:20;;;;;;;5.33;4.83;;;30.20;51.90;;;;;;5096546;28;20426;-45
2022/05/19 09:14:00;;;;;;;6.87;5.27;;;30.20;51.70;;;;;;5096768;28;20466;-44
2022/05/19 09:16:29;;;;;;;4.97;4.57;;;30.00;51.90;;;;;;5077850;28;20693;-45
2022/05/19 09:18:59;;;;;;;5.87;5.00;;;30.00;52.40;;;;;;5077461;28;20423;-46
2022/05/19 09:21:26;;;;;;;5.90;4.80;;;30.10;51.70;;;;;;5096146;28;20824;-43
2022/05/19 09:23:51;;;;;;;5.73;5.20;;;30.30;52.00;;;;;;5095301;28;20411;-45
2022/05/19 09:26:33;;;;;;;5.20;4.80;;;30.60;51.90;;;;;;5094668;28;20860;-45
2022/05/19 09:29:04;;;;;;;6.37;5.13;;;30.80;51.50;;;;;;5077200;28;20235;-44
2022/05/19 09:31:41;;;;;;;5.77;5.27;;;30.70;51.50;;;;;;5095992;28;20894;-44
2022/05/19 09:34:09;;;;;;;6.83;5.40;;;30.80;51.90;;;;;;5097345;28;20497;-45
2022/05/19 09:36:41;;;;;;;5.50;5.07;;;30.60;51.60;;;;;;5097806;28;20418;-45
2022/05/19 09:39:14;;;;;;;6.00;5.50;;;30.50;51.70;;;;;;5097723;28;20830;-44
2022/05/19 09:41:51;;;;;;;5.90;5.40;;;30.40;52.60;;;;;;5095047;28;20687;-46
2022/05/19 09:44:32;;;;;;;7.30;6.10;;;30.30;52.30;;;;;;5078293;28;20694;-44
2022/05/19 09:46:58;;;;;;;5.63;5.23;;;30.60;52.20;;;;;;5096068;28;20652;-49
2022/05/19 09:49:32;;;;;;;7.63;5.73;;;30.30;52.20;;;;;;5077117;28;20685;-44
2022/05/19 09:52:03;;;;;;;6.60;5.97;;;30.20;52.60;;;;;;5094446;28;20683;-45
2022/05/19 09:54:34;;;;;;;7.27;6.17;;;30.10;53.20;;;;;;5095016;28;20389;-45
2022/05/19 09:57:10;;;;;;;5.90;5.40;;;30.40;52.70;;;;;;5094029;28;20701;-43
2022/05/19 09:59:45;;;;;;;6.47;5.97;;;30.60;52.30;;;;;;5094324;28;20420;-46
2022/05/19 10:02:17;;;;;;;6.27;5.77;;;30.90;51.70;;;;;;5094831;28;20416;-45
2022/05/19 10:04:49;;;;;;;6.40;5.80;;;31.10;51.30;;;;;;5094942;28;20828;-44
2022/05/19 10:07:25;;;;;;;7.77;6.10;;;31.10;51.10;;;;;;5094202;28;20426;-44
2022/05/19 10:09:54;;;;;;;9.00;5.60;;;31.10;51.10;;;;;;5095224;28;20424;-44
2022/05/19 10:12:29;;;;;;;5.40;5.00;;;31.10;51.10;;;;;;5093666;28;20487;-42
2022/05/19 10:14:59;;;;;;;6.37;5.87;;;31.10;51.70;;;;;;5095741;28;20394;-45
2022/05/19 10:18:00;;;;;;;7.30;6.30;;;31.20;51.40;;;;;;5094509;28;20813;-46
2022/05/19 10:20:30;;;;;;;9.27;5.97;;;31.60;51.00;;;;;;5093663;28;20419;-46
2022/05/19 10:22:59;;;;;;;5.30;5.00;;;32.20;50.70;;;;;;5076194;28;20435;-47
2022/05/19 10:25:40;;;;;;;6.17;5.57;;;32.80;49.50;;;;;;5077398;28;20396;-45
2022/05/19 10:31:08;;;;;;;7.77;6.00;;;33.10;47.40;;;;;;5094706;28;20441;-46
2022/05/19 10:34:00;;;;;;;5.80;5.40;;;32.40;48.00;;;;;;5077364;28;20766;-44
2022/05/19 10:36:38;;;;;;;6.23;5.50;;;32.20;48.50;;;;;;5057258;28;20406;-43
2022/05/19 10:39:43;;;;;;;6.00;5.50;;;32.70;48.50;;;;;;5094603;28;20648;-45
2022/05/19 10:42:15;;;;;;;6.57;6.03;;;33.40;49.20;;;;;;5076855;28;20757;-45
2022/05/19 10:44:46;;;;;;;5.97;5.37;;;34.20;46.10;;;;;;5094654;28;20401;-45
2022/05/19 10:47:27;;;;;;;6.30;5.73;;;34.40;44.70;;;;;;5095307;28;21019;-44
2022/05/19 10:50:15;;;;;;;10.70;5.70;;;34.40;43.40;;;;;;5095833;28;20517;-48
2022/05/19 10:53:06;;;;;;;5.10;4.60;;;34.50;43.90;;;;;;5094680;28;20440;-44
2022/05/19 10:55:57;;;;;;;5.50;4.47;;;34.60;41.70;;;;;;5096705;28;20381;-46
2022/05/19 10:58:50;;;;;;;5.50;5.07;;;34.00;41.10;;;;;;5094747;28;20427;-47
2022/05/19 11:01:27;;;;;;;7.10;4.83;;;33.60;41.30;;;;;;5095743;28;20390;-45
2022/05/19 11:04:27;;;;;;;5.10;4.60;;;33.30;41.20;;;;;;5095884;28;20396;-43
2022/05/19 11:07:14;;;;;;;5.37;4.87;;;33.30;41.60;;;;;;5077046;28;20641;-45
2022/05/19 11:09:48;;;;;;;4.90;4.40;;;33.60;42.60;;;;;;5093733;28;20814;-50
2022/05/19 11:12:19;;;;;;;7.30;5.03;;;34.20;42.10;;;;;;5093207;28;20541;-46
2022/05/19 11:14:56;;;;;;;5.40;4.90;;;34.70;42.30;;;;;;5093094;28;20521;-48
2022/05/19 11:17:44;;;;;;;5.60;5.07;;;35.20;41.30;;;;;;5072310;28;20438;-46
2022/05/19 11:20:42;;;;;;;6.00;5.50;;;35.60;41.30;;;;;;5093577;28;20401;-47
2022/05/19 11:23:18;;;;;;;6.07;5.47;;;35.50;41.50;;;;;;5083424;28;20506;-44
2022/05/19 11:28:44;;;;;;;5.20;4.70;;;36.00;39.90;;;;;;5042321;28;20877;-48
2022/05/19 11:31:23;;;;;;;5.00;4.60;;;36.00;38.60;;;;;;5094407;28;20412;-47
2022/05/19 11:33:51;;;;;;;5.10;4.50;;;36.10;37.30;;;;;;5093676;28;20494;-47
2022/05/19 11:36:30;;;;;;;5.67;5.03;;;35.60;38.30;;;;;;5073507;28;20447;-47
2022/05/19 11:39:05;;;;;;;8.37;5.20;;;35.20;39.40;;;;;;5093462;28;20664;-47
2022/05/19 11:41:34;;;;;;;6.80;5.80;;;35.10;39.50;;;;;;5085650;28;20417;-46
2022/05/19 11:44:10;;;;;;;8.73;4.77;;;35.70;40.10;;;;;;5057185;28;20442;-48
2022/05/19 11:47:05;;;;;;;7.50;5.33;;;35.80;37.60;;;;;;5058087;28;20508;-47
2022/05/19 11:55:42;;;;;;;5.20;4.70;;;35.60;36.90;;;;;;5072787;28;20393;-44
2022/05/19 11:58:36;;;;;;;4.70;4.30;;;35.70;35.90;;;;;;5073751;28;20895;-46
2022/05/19 12:01:14;;;;;;;5.63;4.70;;;36.50;36.10;;;;;;5070084;28;20468;-47
2022/05/19 12:03:44;;;;;;;5.10;4.60;;;36.40;35.10;;;;;;5053743;28;20521;-44
2022/05/19 12:06:12;;;;;;;5.30;4.80;;;36.50;34.80;;;;;;5070523;28;20437;-48
2022/05/19 12:09:06;;;;;;;5.53;4.60;;;36.30;35.00;;;;;;5071739;28;20705;-44
2022/05/19 12:11:40;;;;;;;6.27;4.30;;;35.60;35.70;;;;;;5072707;28;20792;-48
2022/05/19 12:14:13;;;;;;;4.67;4.27;;;35.20;35.00;;;;;;5072177;28;20427;-44
2022/05/19 12:16:52;;;;;;;5.70;4.50;;;35.30;35.60;;;;;;5073473;28;20840;-46
2022/05/19 12:19:33;;;;;;;5.20;4.70;;;34.60;35.30;;;;;;5072683;28;20415;-45
2022/05/19 12:22:00;;;;;;;4.83;4.33;;;34.10;36.70;;;;;;5072397;28;20419;-46
2022/05/19 12:24:50;;;;;;;4.87;4.47;;;34.10;36.30;;;;;;5058737;28;20394;-47
2022/05/19 12:27:19;;;;;;;5.03;4.60;;;34.40;36.50;;;;;;5078088;28;20448;-47
2022/05/19 12:33:21;;;;;;;5.70;4.40;;;34.90;36.10;;;;;;5075102;28;20557;-46
2022/05/19 12:36:35;;;;;;;5.10;4.70;;;34.70;35.90;;;;;;5075897;28;20394;-46
2022/05/19 12:39:31;;;;;;;6.97;4.87;;;34.80;36.30;;;;;;5058195;28;20489;-47
2022/05/19 12:42:13;;;;;;;4.60;4.20;;;34.60;35.90;;;;;;5073981;28;20413;-45
2022/05/19 12:44:46;;;;;;;6.00;4.73;;;34.80;35.50;;;;;;5057576;28;20913;-47
2022/05/19 12:47:20;;;;;;;5.70;4.83;;;34.40;35.90;;;;;;5075352;28;20433;-46
2022/05/19 12:50:02;;;;;;;5.33;4.83;;;34.30;36.20;;;;;;5075519;28;20639;-45
2022/05/19 12:53:03;;;;;;;5.00;4.60;;;34.10;36.70;;;;;;5075404;28;20483;-47
2022/05/19 12:55:42;;;;;;;5.70;5.20;;;34.20;36.50;;;;;;5076299;28;20838;-44
2022/05/19 12:58:44;;;;;;;5.93;5.33;;;34.10;35.90;;;;;;5076011;28;20723;-46
2022/05/19 13:01:36;;;;;;;4.70;4.30;;;33.90;35.70;;;;;;5075298;28;20530;-46
2022/05/19 13:04:04;;;;;;;5.60;4.73;;;33.90;35.30;;;;;;5076385;28;20869;-46
2022/05/19 13:06:30;;;;;;;7.03;5.77;;;33.70;35.50;;;;;;5076636;28;20429;-44
2022/05/19 13:08:57;;;;;;;4.67;4.20;;;33.70;35.50;;;;;;5063139;28;20994;-47
2022/05/19 13:11:33;;;;;;;5.30;4.00;;;33.50;35.30;;;;;;5078888;28;20421;-47
2022/05/19 13:14:15;;;;;;;7.63;4.73;;;33.80;35.50;;;;;;5096275;28;20489;-46
2022/05/19 13:16:51;;;;;;;5.13;4.40;;;34.10;35.50;;;;;;5097195;28;20437;-45
2022/05/19 13:19:25;;;;;;;4.60;4.20;;;34.00;35.10;;;;;;5079685;28;20471;-48
2022/05/19 13:22:02;;;;;;;6.23;5.00;;;33.80;34.90;;;;;;5098037;28;20917;-48
2022/05/19 13:24:29;;;;;;;6.53;4.30;;;33.70;34.90;;;;;;5098373;28;20382;-49
2022/05/19 13:32:33;;;;;;;4.90;4.23;;;33.30;35.50;;;;;;5060482;28;20475;-46
2022/05/19 13:35:01;;;;;;;6.27;4.57;;;33.00;35.50;;;;;;5093515;28;20547;-47
2022/05/19 13:37:30;;;;;;;8.67;4.90;;;32.90;36.10;;;;;;5078358;28;20848;-46
2022/05/19 13:40:36;;;;;;;6.10;4.70;;;32.90;36.70;;;;;;5096690;28;20441;-48
2022/05/19 13:43:11;;;;;;;5.60;4.50;;;32.90;36.20;;;;;;5065645;28;20446;-48